Elm Grove, Wisconsin
Current Conditions -  °F | °C
As of 10:55 PM on Thursday 30 Oct 2014 (Local Time) from KMWC Reporting Station
Overcast Overcast  
Wind Chill: 40°   Ceiling: 4400
Heat Index: 45°   Visibility: 10mi
Dew Point: 34°   Wind: 9mph
Humidity: 66%   Direction: 280°W
Pressure: 30.03"   Gusts: NA
Location:  43.05°N, 88.08°W
Report Text: KMWC 310355Z AUTO 28008KT 10SM BKN044 OVC050 07/01 A3003 RMK AO2
Loading
Personal Weather Stations






























Interactive Weather Map New forecast layout! Learn more

10-Day Weather Forecast

Advertisements
Track Severe Weather on mobile